sensor_id;sensor_type;location;lat;lon;timestamp;P1;durP1;ratioP1;P2;durP2;ratioP2
70729;SDS011;58315;53.336;55.932;2023-05-10T00:00:53;42.70;;;15.45;;
70729;SDS011;58315;53.336;55.932;2023-05-10T00:03:19;41.45;;;16.70;;
70729;SDS011;58315;53.336;55.932;2023-05-10T00:05:45;41.90;;;14.82;;
70729;SDS011;58315;53.336;55.932;2023-05-10T00:08:11;51.22;;;16.40;;
70729;SDS011;58315;53.336;55.932;2023-05-10T00:10:37;41.72;;;15.63;;
70729;SDS011;58315;53.336;55.932;2023-05-10T00:13:04;35.08;;;15.63;;
70729;SDS011;58315;53.336;55.932;2023-05-10T00:15:30;58.63;;;16.77;;
70729;SDS011;58315;53.336;55.932;2023-05-10T00:17:56;38.63;;;15.38;;
70729;SDS011;58315;53.336;55.932;2023-05-10T00:20:22;40.70;;;16.00;;
70729;SDS011;58315;53.336;55.932;2023-05-10T00:22:48;45.00;;;17.00;;
70729;SDS011;58315;53.336;55.932;2023-05-10T00:25:15;52.30;;;18.58;;
70729;SDS011;58315;53.336;55.932;2023-05-10T00:27:41;44.17;;;17.83;;
70729;SDS011;58315;53.336;55.932;2023-05-10T00:30:07;45.80;;;18.10;;
70729;SDS011;58315;53.336;55.932;2023-05-10T00:32:34;44.50;;;17.90;;
70729;SDS011;58315;53.336;55.932;2023-05-10T00:35:00;46.00;;;17.85;;
70729;SDS011;58315;53.336;55.932;2023-05-10T00:37:27;48.45;;;19.92;;
70729;SDS011;58315;53.336;55.932;2023-05-10T00:39:54;38.28;;;16.83;;
70729;SDS011;58315;53.336;55.932;2023-05-10T00:42:20;45.85;;;17.73;;
70729;SDS011;58315;53.336;55.932;2023-05-10T00:44:47;41.95;;;18.20;;
70729;SDS011;58315;53.336;55.932;2023-05-10T00:47:13;49.75;;;18.95;;
70729;SDS011;58315;53.336;55.932;2023-05-10T00:49:40;39.03;;;16.67;;
70729;SDS011;58315;53.336;55.932;2023-05-10T00:52:07;43.25;;;16.83;;
70729;SDS011;58315;53.336;55.932;2023-05-10T00:54:34;38.53;;;16.27;;
70729;SDS011;58315;53.336;55.932;2023-05-10T00:57:00;42.50;;;16.65;;
70729;SDS011;58315;53.336;55.932;2023-05-10T00:59:27;41.08;;;14.57;;
70729;SDS011;58315;53.336;55.932;2023-05-10T01:01:54;45.22;;;16.83;;
70729;SDS011;58315;53.336;55.932;2023-05-10T01:04:20;33.35;;;13.43;;
70729;SDS011;58315;53.336;55.932;2023-05-10T01:06:51;36.75;;;15.90;;
70729;SDS011;58315;53.336;55.932;2023-05-10T01:09:19;33.80;;;15.73;;
70729;SDS011;58315;53.336;55.932;2023-05-10T01:11:46;41.50;;;14.55;;
70729;SDS011;58315;53.336;55.932;2023-05-10T01:14:14;38.08;;;15.68;;
70729;SDS011;58315;53.336;55.932;2023-05-10T01:16:43;37.92;;;15.55;;
70729;SDS011;58315;53.336;55.932;2023-05-10T01:19:12;29.17;;;14.30;;
70729;SDS011;58315;53.336;55.932;2023-05-10T01:22:22;57.53;;;16.88;;
70729;SDS011;58315;53.336;55.932;2023-05-10T01:27:34;40.38;;;17.00;;
70729;SDS011;58315;53.336;55.932;2023-05-10T01:43:37;45.15;;;16.35;;
70729;SDS011;58315;53.336;55.932;2023-05-10T01:46:36;44.50;;;15.27;;
70729;SDS011;58315;53.336;55.932;2023-05-10T01:49:06;41.72;;;15.85;;
70729;SDS011;58315;53.336;55.932;2023-05-10T01:51:39;45.10;;;15.50;;
70729;SDS011;58315;53.336;55.932;2023-05-10T01:54:10;37.20;;;14.57;;
70729;SDS011;58315;53.336;55.932;2023-05-10T01:56:38;48.95;;;15.45;;
70729;SDS011;58315;53.336;55.932;2023-05-10T01:59:08;41.65;;;16.30;;
70729;SDS011;58315;53.336;55.932;2023-05-10T02:01:38;36.72;;;15.40;;
70729;SDS011;58315;53.336;55.932;2023-05-10T02:04:04;38.05;;;16.20;;
70729;SDS011;58315;53.336;55.932;2023-05-10T02:06:34;35.07;;;15.47;;
70729;SDS011;58315;53.336;55.932;2023-05-10T02:09:01;41.80;;;16.05;;
70729;SDS011;58315;53.336;55.932;2023-05-10T02:11:29;42.33;;;15.45;;
70729;SDS011;58315;53.336;55.932;2023-05-10T02:13:57;49.72;;;16.77;;
70729;SDS011;58315;53.336;55.932;2023-05-10T02:16:29;37.60;;;15.00;;
70729;SDS011;58315;53.336;55.932;2023-05-10T02:18:57;34.20;;;16.33;;
70729;SDS011;58315;53.336;55.932;2023-05-10T02:21:28;39.45;;;15.80;;
70729;SDS011;58315;53.336;55.932;2023-05-10T02:23:56;39.67;;;16.45;;
70729;SDS011;58315;53.336;55.932;2023-05-10T02:26:24;34.67;;;15.65;;
70729;SDS011;58315;53.336;55.932;2023-05-10T02:28:51;37.78;;;17.08;;
70729;SDS011;58315;53.336;55.932;2023-05-10T02:31:20;50.77;;;16.57;;
70729;SDS011;58315;53.336;55.932;2023-05-10T02:33:48;39.95;;;15.75;;
70729;SDS011;58315;53.336;55.932;2023-05-10T02:36:17;38.42;;;16.17;;
70729;SDS011;58315;53.336;55.932;2023-05-10T02:38:46;47.55;;;17.35;;
70729;SDS011;58315;53.336;55.932;2023-05-10T02:41:15;46.70;;;16.23;;
70729;SDS011;58315;53.336;55.932;2023-05-10T02:43:42;36.33;;;15.15;;
70729;SDS011;58315;53.336;55.932;2023-05-10T02:46:09;37.15;;;15.88;;
70729;SDS011;58315;53.336;55.932;2023-05-10T02:48:36;37.53;;;16.55;;
70729;SDS011;58315;53.336;55.932;2023-05-10T02:51:04;37.90;;;16.63;;
70729;SDS011;58315;53.336;55.932;2023-05-10T02:53:33;38.50;;;16.42;;
70729;SDS011;58315;53.336;55.932;2023-05-10T02:56:01;46.53;;;16.20;;
70729;SDS011;58315;53.336;55.932;2023-05-10T02:58:32;45.65;;;15.13;;
70729;SDS011;58315;53.336;55.932;2023-05-10T03:00:59;39.25;;;17.45;;
70729;SDS011;58315;53.336;55.932;2023-05-10T03:03:25;42.95;;;16.00;;
70729;SDS011;58315;53.336;55.932;2023-05-10T03:05:52;46.63;;;16.25;;
70729;SDS011;58315;53.336;55.932;2023-05-10T03:08:22;44.63;;;16.75;;
70729;SDS011;58315;53.336;55.932;2023-05-10T03:11:01;40.55;;;16.75;;
70729;SDS011;58315;53.336;55.932;2023-05-10T03:14:10;33.17;;;14.43;;
70729;SDS011;58315;53.336;55.932;2023-05-10T03:17:04;33.70;;;14.00;;
70729;SDS011;58315;53.336;55.932;2023-05-10T03:19:42;39.05;;;15.20;;
70729;SDS011;58315;53.336;55.932;2023-05-10T03:22:30;41.58;;;15.73;;
70729;SDS011;58315;53.336;55.932;2023-05-10T03:24:58;47.35;;;16.02;;
70729;SDS011;58315;53.336;55.932;2023-05-10T03:27:36;51.92;;;18.00;;
70729;SDS011;58315;53.336;55.932;2023-05-10T03:30:10;47.75;;;16.70;;
70729;SDS011;58315;53.336;55.932;2023-05-10T03:32:37;53.47;;;16.95;;
70729;SDS011;58315;53.336;55.932;2023-05-10T03:35:07;36.20;;;17.58;;
70729;SDS011;58315;53.336;55.932;2023-05-10T03:37:38;47.35;;;17.58;;
70729;SDS011;58315;53.336;55.932;2023-05-10T03:40:05;40.03;;;17.30;;
70729;SDS011;58315;53.336;55.932;2023-05-10T03:42:34;40.72;;;16.08;;
70729;SDS011;58315;53.336;55.932;2023-05-10T03:45:00;33.72;;;15.93;;
70729;SDS011;58315;53.336;55.932;2023-05-10T03:47:26;37.75;;;16.27;;
70729;SDS011;58315;53.336;55.932;2023-05-10T03:49:52;39.78;;;16.98;;
70729;SDS011;58315;53.336;55.932;2023-05-10T03:52:18;44.47;;;17.20;;
70729;SDS011;58315;53.336;55.932;2023-05-10T03:54:44;49.85;;;18.08;;
70729;SDS011;58315;53.336;55.932;2023-05-10T03:57:10;40.63;;;15.88;;
70729;SDS011;58315;53.336;55.932;2023-05-10T03:59:36;33.75;;;16.23;;
70729;SDS011;58315;53.336;55.932;2023-05-10T04:02:03;47.75;;;18.55;;
70729;SDS011;58315;53.336;55.932;2023-05-10T04:04:29;38.92;;;16.33;;
70729;SDS011;58315;53.336;55.932;2023-05-10T04:06:55;38.92;;;16.73;;
70729;SDS011;58315;53.336;55.932;2023-05-10T04:09:22;35.95;;;16.63;;
70729;SDS011;58315;53.336;55.932;2023-05-10T04:11:48;40.55;;;16.38;;
70729;SDS011;58315;53.336;55.932;2023-05-10T04:14:14;40.47;;;16.60;;
70729;SDS011;58315;53.336;55.932;2023-05-10T04:16:40;38.17;;;17.50;;
70729;SDS011;58315;53.336;55.932;2023-05-10T04:19:06;35.83;;;15.55;;
70729;SDS011;58315;53.336;55.932;2023-05-10T04:21:32;34.80;;;16.02;;
70729;SDS011;58315;53.336;55.932;2023-05-10T04:23:58;39.17;;;16.73;;
70729;SDS011;58315;53.336;55.932;2023-05-10T04:26:23;37.67;;;16.10;;
70729;SDS011;58315;53.336;55.932;2023-05-10T04:28:51;53.28;;;16.65;;
70729;SDS011;58315;53.336;55.932;2023-05-10T04:31:17;39.78;;;15.63;;
70729;SDS011;58315;53.336;55.932;2023-05-10T04:33:43;36.58;;;15.90;;
70729;SDS011;58315;53.336;55.932;2023-05-10T04:36:09;38.70;;;16.15;;
70729;SDS011;58315;53.336;55.932;2023-05-10T04:38:35;48.08;;;15.60;;
70729;SDS011;58315;53.336;55.932;2023-05-10T04:41:05;37.40;;;15.20;;
70729;SDS011;58315;53.336;55.932;2023-05-10T04:43:33;33.70;;;13.55;;
70729;SDS011;58315;53.336;55.932;2023-05-10T04:45:59;34.90;;;14.50;;
70729;SDS011;58315;53.336;55.932;2023-05-10T04:48:25;31.42;;;14.65;;
70729;SDS011;58315;53.336;55.932;2023-05-10T04:50:52;33.65;;;13.73;;
70729;SDS011;58315;53.336;55.932;2023-05-10T04:53:18;40.00;;;15.63;;
70729;SDS011;58315;53.336;55.932;2023-05-10T04:55:44;44.88;;;16.25;;
70729;SDS011;58315;53.336;55.932;2023-05-10T04:58:10;34.85;;;15.95;;
70729;SDS011;58315;53.336;55.932;2023-05-10T05:00:36;33.83;;;15.48;;
70729;SDS011;58315;53.336;55.932;2023-05-10T05:03:02;36.85;;;17.15;;
70729;SDS011;58315;53.336;55.932;2023-05-10T05:05:29;35.92;;;16.08;;
70729;SDS011;58315;53.336;55.932;2023-05-10T05:07:55;40.78;;;17.58;;
70729;SDS011;58315;53.336;55.932;2023-05-10T05:10:21;36.50;;;16.58;;
70729;SDS011;58315;53.336;55.932;2023-05-10T05:12:47;40.88;;;16.95;;
70729;SDS011;58315;53.336;55.932;2023-05-10T05:15:13;39.67;;;17.17;;
70729;SDS011;58315;53.336;55.932;2023-05-10T05:17:42;44.10;;;18.77;;
70729;SDS011;58315;53.336;55.932;2023-05-10T05:20:09;39.65;;;17.95;;
70729;SDS011;58315;53.336;55.932;2023-05-10T05:22:36;46.28;;;19.08;;
70729;SDS011;58315;53.336;55.932;2023-05-10T05:25:03;47.60;;;18.60;;
70729;SDS011;58315;53.336;55.932;2023-05-10T05:27:32;39.70;;;18.45;;
70729;SDS011;58315;53.336;55.932;2023-05-10T05:29:58;44.55;;;19.00;;
70729;SDS011;58315;53.336;55.932;2023-05-10T05:32:25;48.60;;;19.15;;
70729;SDS011;58315;53.336;55.932;2023-05-10T05:34:51;49.45;;;20.05;;
70729;SDS011;58315;53.336;55.932;2023-05-10T05:37:18;48.90;;;20.20;;
70729;SDS011;58315;53.336;55.932;2023-05-10T05:39:45;56.00;;;21.27;;
70729;SDS011;58315;53.336;55.932;2023-05-10T05:42:11;49.95;;;21.10;;
70729;SDS011;58315;53.336;55.932;2023-05-10T05:44:38;47.40;;;21.00;;
70729;SDS011;58315;53.336;55.932;2023-05-10T05:47:05;55.90;;;21.08;;
70729;SDS011;58315;53.336;55.932;2023-05-10T05:49:32;46.08;;;20.75;;
70729;SDS011;58315;53.336;55.932;2023-05-10T05:52:02;43.15;;;20.50;;
70729;SDS011;58315;53.336;55.932;2023-05-10T05:54:30;49.78;;;20.08;;
70729;SDS011;58315;53.336;55.932;2023-05-10T05:56:57;55.13;;;21.83;;
70729;SDS011;58315;53.336;55.932;2023-05-10T05:59:24;43.88;;;21.23;;
70729;SDS011;58315;53.336;55.932;2023-05-10T06:01:50;49.78;;;22.33;;
70729;SDS011;58315;53.336;55.932;2023-05-10T06:04:16;51.67;;;23.30;;
70729;SDS011;58315;53.336;55.932;2023-05-10T06:06:43;55.70;;;22.35;;
70729;SDS011;58315;53.336;55.932;2023-05-10T06:09:09;53.05;;;22.00;;
70729;SDS011;58315;53.336;55.932;2023-05-10T06:11:35;49.30;;;22.95;;
70729;SDS011;58315;53.336;55.932;2023-05-10T06:14:02;59.25;;;23.52;;
70729;SDS011;58315;53.336;55.932;2023-05-10T06:16:33;57.90;;;25.10;;
70729;SDS011;58315;53.336;55.932;2023-05-10T06:19:00;52.50;;;23.83;;
70729;SDS011;58315;53.336;55.932;2023-05-10T06:21:26;59.72;;;25.35;;
70729;SDS011;58315;53.336;55.932;2023-05-10T06:23:52;58.78;;;25.02;;
70729;SDS011;58315;53.336;55.932;2023-05-10T06:26:18;54.03;;;25.42;;
70729;SDS011;58315;53.336;55.932;2023-05-10T06:28:44;58.33;;;25.88;;
70729;SDS011;58315;53.336;55.932;2023-05-10T06:31:10;56.15;;;25.00;;
70729;SDS011;58315;53.336;55.932;2023-05-10T06:33:37;61.33;;;25.05;;
70729;SDS011;58315;53.336;55.932;2023-05-10T06:36:03;58.65;;;25.75;;
70729;SDS011;58315;53.336;55.932;2023-05-10T06:38:30;58.97;;;24.98;;
70729;SDS011;58315;53.336;55.932;2023-05-10T06:40:56;55.38;;;25.67;;
70729;SDS011;58315;53.336;55.932;2023-05-10T06:43:22;62.00;;;26.92;;
70729;SDS011;58315;53.336;55.932;2023-05-10T06:45:48;57.55;;;27.20;;
70729;SDS011;58315;53.336;55.932;2023-05-10T06:48:14;63.22;;;26.70;;
70729;SDS011;58315;53.336;55.932;2023-05-10T06:50:40;65.75;;;26.25;;
70729;SDS011;58315;53.336;55.932;2023-05-10T06:53:06;58.28;;;26.33;;
70729;SDS011;58315;53.336;55.932;2023-05-10T06:55:33;68.47;;;26.92;;
70729;SDS011;58315;53.336;55.932;2023-05-10T06:57:59;54.97;;;26.33;;
70729;SDS011;58315;53.336;55.932;2023-05-10T07:00:25;64.18;;;27.30;;
70729;SDS011;58315;53.336;55.932;2023-05-10T07:02:51;70.65;;;26.90;;
70729;SDS011;58315;53.336;55.932;2023-05-10T07:05:17;59.13;;;26.25;;
70729;SDS011;58315;53.336;55.932;2023-05-10T07:07:43;61.60;;;26.83;;
70729;SDS011;58315;53.336;55.932;2023-05-10T07:10:09;67.20;;;27.05;;
70729;SDS011;58315;53.336;55.932;2023-05-10T07:12:36;62.30;;;27.73;;
70729;SDS011;58315;53.336;55.932;2023-05-10T07:15:02;62.40;;;27.38;;
70729;SDS011;58315;53.336;55.932;2023-05-10T07:17:34;55.70;;;25.58;;
70729;SDS011;58315;53.336;55.932;2023-05-10T07:20:00;67.75;;;28.08;;
70729;SDS011;58315;53.336;55.932;2023-05-10T07:22:30;62.35;;;26.40;;
70729;SDS011;58315;53.336;55.932;2023-05-10T07:24:56;67.63;;;27.45;;
70729;SDS011;58315;53.336;55.932;2023-05-10T07:27:22;65.20;;;28.15;;
70729;SDS011;58315;53.336;55.932;2023-05-10T07:29:48;55.88;;;26.13;;
70729;SDS011;58315;53.336;55.932;2023-05-10T07:32:14;69.28;;;28.23;;
70729;SDS011;58315;53.336;55.932;2023-05-10T07:34:43;61.00;;;27.48;;
70729;SDS011;58315;53.336;55.932;2023-05-10T07:37:09;62.88;;;26.98;;
70729;SDS011;58315;53.336;55.932;2023-05-10T07:39:35;63.00;;;28.52;;
70729;SDS011;58315;53.336;55.932;2023-05-10T07:42:00;55.42;;;27.77;;
70729;SDS011;58315;53.336;55.932;2023-05-10T07:44:27;61.58;;;28.65;;
70729;SDS011;58315;53.336;55.932;2023-05-10T07:46:55;61.75;;;28.00;;
70729;SDS011;58315;53.336;55.932;2023-05-10T07:49:21;73.72;;;28.30;;
70729;SDS011;58315;53.336;55.932;2023-05-10T07:51:49;63.72;;;28.05;;
70729;SDS011;58315;53.336;55.932;2023-05-10T07:54:15;56.22;;;28.67;;
70729;SDS011;58315;53.336;55.932;2023-05-10T07:56:42;63.20;;;28.42;;
70729;SDS011;58315;53.336;55.932;2023-05-10T07:59:16;68.03;;;27.02;;
70729;SDS011;58315;53.336;55.932;2023-05-10T08:01:44;70.03;;;27.45;;
70729;SDS011;58315;53.336;55.932;2023-05-10T08:04:10;54.63;;;26.27;;
70729;SDS011;58315;53.336;55.932;2023-05-10T08:06:37;59.17;;;24.52;;
70729;SDS011;58315;53.336;55.932;2023-05-10T08:09:03;54.95;;;26.85;;
70729;SDS011;58315;53.336;55.932;2023-05-10T08:11:30;60.92;;;28.52;;
70729;SDS011;58315;53.336;55.932;2023-05-10T08:13:56;63.03;;;27.40;;
70729;SDS011;58315;53.336;55.932;2023-05-10T08:16:22;68.28;;;31.00;;
70729;SDS011;58315;53.336;55.932;2023-05-10T08:18:48;64.00;;;30.05;;
70729;SDS011;58315;53.336;55.932;2023-05-10T08:21:16;59.05;;;28.52;;
70729;SDS011;58315;53.336;55.932;2023-05-10T08:23:42;74.38;;;31.30;;
70729;SDS011;58315;53.336;55.932;2023-05-10T08:26:09;65.70;;;31.45;;
70729;SDS011;58315;53.336;55.932;2023-05-10T08:28:35;64.47;;;27.58;;
70729;SDS011;58315;53.336;55.932;2023-05-10T08:31:01;70.85;;;29.33;;
70729;SDS011;58315;53.336;55.932;2023-05-10T08:33:28;64.15;;;29.73;;
70729;SDS011;58315;53.336;55.932;2023-05-10T08:35:54;63.08;;;28.55;;
70729;SDS011;58315;53.336;55.932;2023-05-10T08:38:20;56.72;;;29.08;;
70729;SDS011;58315;53.336;55.932;2023-05-10T08:40:46;56.47;;;25.40;;
70729;SDS011;58315;53.336;55.932;2023-05-10T08:43:16;58.03;;;26.45;;
70729;SDS011;58315;53.336;55.932;2023-05-10T08:45:43;46.67;;;24.15;;
70729;SDS011;58315;53.336;55.932;2023-05-10T08:48:13;48.92;;;24.50;;
70729;SDS011;58315;53.336;55.932;2023-05-10T08:50:40;43.72;;;20.48;;
70729;SDS011;58315;53.336;55.932;2023-05-10T08:53:11;41.70;;;18.48;;
70729;SDS011;58315;53.336;55.932;2023-05-10T08:55:38;53.38;;;21.52;;
70729;SDS011;58315;53.336;55.932;2023-05-10T08:58:05;48.83;;;21.75;;
70729;SDS011;58315;53.336;55.932;2023-05-10T09:00:32;42.65;;;20.10;;
70729;SDS011;58315;53.336;55.932;2023-05-10T09:02:59;40.13;;;18.38;;
70729;SDS011;58315;53.336;55.932;2023-05-10T09:05:26;42.45;;;18.73;;
70729;SDS011;58315;53.336;55.932;2023-05-10T09:07:53;47.55;;;20.70;;
70729;SDS011;58315;53.336;55.932;2023-05-10T09:10:20;35.88;;;17.55;;
70729;SDS011;58315;53.336;55.932;2023-05-10T09:12:46;39.20;;;20.00;;
70729;SDS011;58315;53.336;55.932;2023-05-10T09:15:14;39.95;;;19.95;;
70729;SDS011;58315;53.336;55.932;2023-05-10T09:17:42;45.88;;;20.27;;
70729;SDS011;58315;53.336;55.932;2023-05-10T09:20:11;46.15;;;19.02;;
70729;SDS011;58315;53.336;55.932;2023-05-10T09:22:38;40.00;;;18.40;;
70729;SDS011;58315;53.336;55.932;2023-05-10T09:25:08;50.08;;;19.92;;
70729;SDS011;58315;53.336;55.932;2023-05-10T09:27:37;40.58;;;19.23;;
70729;SDS011;58315;53.336;55.932;2023-05-10T09:30:04;44.10;;;19.60;;
70729;SDS011;58315;53.336;55.932;2023-05-10T09:32:36;40.85;;;17.75;;
70729;SDS011;58315;53.336;55.932;2023-05-10T09:35:09;42.15;;;17.45;;
70729;SDS011;58315;53.336;55.932;2023-05-10T09:37:40;39.85;;;18.33;;
70729;SDS011;58315;53.336;55.932;2023-05-10T09:40:12;42.42;;;18.88;;
70729;SDS011;58315;53.336;55.932;2023-05-10T09:42:42;48.92;;;19.38;;
70729;SDS011;58315;53.336;55.932;2023-05-10T09:45:15;38.03;;;18.27;;
70729;SDS011;58315;53.336;55.932;2023-05-10T09:47:42;41.72;;;19.33;;
70729;SDS011;58315;53.336;55.932;2023-05-10T09:50:08;45.97;;;18.55;;
70729;SDS011;58315;53.336;55.932;2023-05-10T09:52:51;36.63;;;18.05;;
70729;SDS011;58315;53.336;55.932;2023-05-10T09:55:37;36.35;;;18.13;;
70729;SDS011;58315;53.336;55.932;2023-05-10T09:58:05;36.28;;;18.70;;
70729;SDS011;58315;53.336;55.932;2023-05-10T10:03:05;37.53;;;17.92;;
70729;SDS011;58315;53.336;55.932;2023-05-10T10:05:32;43.70;;;17.83;;
70729;SDS011;58315;53.336;55.932;2023-05-10T10:08:02;37.25;;;17.23;;
70729;SDS011;58315;53.336;55.932;2023-05-10T10:10:30;37.63;;;17.60;;
70729;SDS011;58315;53.336;55.932;2023-05-10T10:12:57;38.80;;;18.17;;
70729;SDS011;58315;53.336;55.932;2023-05-10T10:15:23;36.47;;;17.20;;
70729;SDS011;58315;53.336;55.932;2023-05-10T10:17:51;36.92;;;18.00;;
70729;SDS011;58315;53.336;55.932;2023-05-10T10:20:18;32.80;;;17.02;;
70729;SDS011;58315;53.336;55.932;2023-05-10T10:22:46;36.30;;;16.90;;
70729;SDS011;58315;53.336;55.932;2023-05-10T10:25:13;37.22;;;16.42;;
70729;SDS011;58315;53.336;55.932;2023-05-10T10:30:27;37.22;;;16.73;;
70729;SDS011;58315;53.336;55.932;2023-05-10T10:36:11;34.10;;;17.50;;
70729;SDS011;58315;53.336;55.932;2023-05-10T10:55:04;35.38;;;16.92;;
70729;SDS011;58315;53.336;55.932;2023-05-10T11:03:10;34.20;;;18.02;;
70729;SDS011;58315;53.336;55.932;2023-05-10T11:05:45;46.78;;;16.70;;
70729;SDS011;58315;53.336;55.932;2023-05-10T11:08:18;30.88;;;16.77;;
70729;SDS011;58315;53.336;55.932;2023-05-10T11:13:43;39.92;;;15.48;;
70729;SDS011;58315;53.336;55.932;2023-05-10T11:16:28;27.17;;;15.02;;
70729;SDS011;58315;53.336;55.932;2023-05-10T11:19:13;27.77;;;13.88;;
70729;SDS011;58315;53.336;55.932;2023-05-10T11:21:45;30.08;;;15.10;;
70729;SDS011;58315;53.336;55.932;2023-05-10T11:24:19;28.67;;;13.57;;
70729;SDS011;58315;53.336;55.932;2023-05-10T11:26:51;29.10;;;13.05;;
70729;SDS011;58315;53.336;55.932;2023-05-10T11:29:19;26.48;;;13.38;;
70729;SDS011;58315;53.336;55.932;2023-05-10T11:31:46;28.00;;;13.73;;
70729;SDS011;58315;53.336;55.932;2023-05-10T11:34:22;31.75;;;14.90;;
70729;SDS011;58315;53.336;55.932;2023-05-10T11:36:51;34.22;;;13.95;;
70729;SDS011;58315;53.336;55.932;2023-05-10T11:39:19;29.10;;;13.15;;
70729;SDS011;58315;53.336;55.932;2023-05-10T11:41:49;27.63;;;13.55;;
70729;SDS011;58315;53.336;55.932;2023-05-10T11:44:15;28.20;;;13.80;;
70729;SDS011;58315;53.336;55.932;2023-05-10T11:46:41;29.45;;;13.82;;
70729;SDS011;58315;53.336;55.932;2023-05-10T11:49:07;27.00;;;13.27;;
70729;SDS011;58315;53.336;55.932;2023-05-10T11:51:34;25.05;;;11.95;;
70729;SDS011;58315;53.336;55.932;2023-05-10T11:54:05;27.38;;;13.73;;
70729;SDS011;58315;53.336;55.932;2023-05-10T11:56:33;23.00;;;12.55;;
70729;SDS011;58315;53.336;55.932;2023-05-10T11:58:59;22.02;;;12.20;;
70729;SDS011;58315;53.336;55.932;2023-05-10T12:01:27;25.58;;;13.63;;
70729;SDS011;58315;53.336;55.932;2023-05-10T12:03:55;31.95;;;13.55;;
70729;SDS011;58315;53.336;55.932;2023-05-10T12:06:29;31.13;;;13.98;;
70729;SDS011;58315;53.336;55.932;2023-05-10T12:08:57;24.42;;;12.35;;
70729;SDS011;58315;53.336;55.932;2023-05-10T12:11:27;26.95;;;13.02;;
70729;SDS011;58315;53.336;55.932;2023-05-10T12:13:56;28.27;;;12.90;;
70729;SDS011;58315;53.336;55.932;2023-05-10T12:16:23;27.67;;;13.38;;
70729;SDS011;58315;53.336;55.932;2023-05-10T12:18:52;26.52;;;12.60;;
70729;SDS011;58315;53.336;55.932;2023-05-10T12:21:19;26.55;;;13.25;;
70729;SDS011;58315;53.336;55.932;2023-05-10T12:23:46;25.50;;;13.00;;
70729;SDS011;58315;53.336;55.932;2023-05-10T12:26:15;26.70;;;13.18;;
70729;SDS011;58315;53.336;55.932;2023-05-10T12:28:42;23.70;;;12.75;;
70729;SDS011;58315;53.336;55.932;2023-05-10T12:31:08;31.52;;;13.15;;
70729;SDS011;58315;53.336;55.932;2023-05-10T12:33:43;26.88;;;13.93;;
70729;SDS011;58315;53.336;55.932;2023-05-10T12:36:11;39.60;;;13.73;;
70729;SDS011;58315;53.336;55.932;2023-05-10T12:38:39;32.10;;;13.13;;
70729;SDS011;58315;53.336;55.932;2023-05-10T12:41:10;32.05;;;12.60;;
70729;SDS011;58315;53.336;55.932;2023-05-10T12:43:38;24.80;;;12.88;;
70729;SDS011;58315;53.336;55.932;2023-05-10T12:48:32;27.05;;;12.82;;
70729;SDS011;58315;53.336;55.932;2023-05-10T12:51:00;22.85;;;11.82;;
70729;SDS011;58315;53.336;55.932;2023-05-10T12:53:27;26.33;;;12.98;;
70729;SDS011;58315;53.336;55.932;2023-05-10T12:55:53;43.15;;;12.95;;
70729;SDS011;58315;53.336;55.932;2023-05-10T12:58:19;23.20;;;12.77;;
70729;SDS011;58315;53.336;55.932;2023-05-10T13:00:45;24.30;;;12.02;;
70729;SDS011;58315;53.336;55.932;2023-05-10T13:03:12;27.83;;;13.13;;
70729;SDS011;58315;53.336;55.932;2023-05-10T13:05:38;31.63;;;12.38;;
70729;SDS011;58315;53.336;55.932;2023-05-10T13:08:04;28.08;;;11.85;;
70729;SDS011;58315;53.336;55.932;2023-05-10T13:10:30;23.85;;;12.18;;
70729;SDS011;58315;53.336;55.932;2023-05-10T13:12:57;28.10;;;12.30;;
70729;SDS011;58315;53.336;55.932;2023-05-10T13:15:24;27.08;;;13.82;;
70729;SDS011;58315;53.336;55.932;2023-05-10T13:17:51;25.67;;;12.48;;
70729;SDS011;58315;53.336;55.932;2023-05-10T13:20:21;29.08;;;12.35;;
70729;SDS011;58315;53.336;55.932;2023-05-10T13:22:47;26.42;;;12.23;;
70729;SDS011;58315;53.336;55.932;2023-05-10T13:25:13;23.45;;;12.50;;
70729;SDS011;58315;53.336;55.932;2023-05-10T13:27:39;26.60;;;12.18;;
70729;SDS011;58315;53.336;55.932;2023-05-10T13:30:06;24.95;;;11.85;;
70729;SDS011;58315;53.336;55.932;2023-05-10T13:32:33;29.33;;;12.18;;
70729;SDS011;58315;53.336;55.932;2023-05-10T13:35:00;26.90;;;12.68;;
70729;SDS011;58315;53.336;55.932;2023-05-10T13:37:31;24.05;;;12.98;;
70729;SDS011;58315;53.336;55.932;2023-05-10T13:40:01;25.65;;;12.95;;
70729;SDS011;58315;53.336;55.932;2023-05-10T13:42:32;24.98;;;13.07;;
70729;SDS011;58315;53.336;55.932;2023-05-10T13:45:00;30.70;;;13.65;;
70729;SDS011;58315;53.336;55.932;2023-05-10T13:47:33;25.70;;;12.70;;
70729;SDS011;58315;53.336;55.932;2023-05-10T13:49:59;25.05;;;13.60;;
70729;SDS011;58315;53.336;55.932;2023-05-10T13:52:30;30.40;;;13.25;;
70729;SDS011;58315;53.336;55.932;2023-05-10T13:54:56;24.50;;;12.90;;
70729;SDS011;58315;53.336;55.932;2023-05-10T13:57:22;26.17;;;13.00;;
70729;SDS011;58315;53.336;55.932;2023-05-10T13:59:50;25.50;;;13.10;;
70729;SDS011;58315;53.336;55.932;2023-05-10T14:02:16;28.73;;;12.73;;
70729;SDS011;58315;53.336;55.932;2023-05-10T14:04:44;28.65;;;13.98;;
70729;SDS011;58315;53.336;55.932;2023-05-10T14:07:11;28.05;;;13.05;;
70729;SDS011;58315;53.336;55.932;2023-05-10T14:09:37;26.67;;;13.52;;
70729;SDS011;58315;53.336;55.932;2023-05-10T14:12:03;39.80;;;14.23;;
70729;SDS011;58315;53.336;55.932;2023-05-10T14:14:29;26.35;;;12.90;;
70729;SDS011;58315;53.336;55.932;2023-05-10T14:16:55;24.95;;;13.18;;
70729;SDS011;58315;53.336;55.932;2023-05-10T14:19:21;30.88;;;14.82;;
70729;SDS011;58315;53.336;55.932;2023-05-10T14:21:47;26.27;;;14.73;;
70729;SDS011;58315;53.336;55.932;2023-05-10T14:24:13;31.60;;;14.60;;
70729;SDS011;58315;53.336;55.932;2023-05-10T14:26:39;26.95;;;13.65;;
70729;SDS011;58315;53.336;55.932;2023-05-10T14:29:05;28.00;;;13.50;;
70729;SDS011;58315;53.336;55.932;2023-05-10T14:31:31;29.20;;;14.57;;
70729;SDS011;58315;53.336;55.932;2023-05-10T14:33:57;28.13;;;14.00;;
70729;SDS011;58315;53.336;55.932;2023-05-10T14:36:24;31.13;;;15.32;;
70729;SDS011;58315;53.336;55.932;2023-05-10T14:38:50;28.15;;;14.02;;
70729;SDS011;58315;53.336;55.932;2023-05-10T14:41:17;28.15;;;14.63;;
70729;SDS011;58315;53.336;55.932;2023-05-10T14:43:43;28.67;;;14.95;;
70729;SDS011;58315;53.336;55.932;2023-05-10T14:46:09;30.45;;;13.30;;
70729;SDS011;58315;53.336;55.932;2023-05-10T14:48:35;31.25;;;14.77;;
70729;SDS011;58315;53.336;55.932;2023-05-10T14:51:01;26.80;;;13.43;;
70729;SDS011;58315;53.336;55.932;2023-05-10T14:53:38;27.70;;;15.00;;
70729;SDS011;58315;53.336;55.932;2023-05-10T14:56:04;32.58;;;14.38;;
70729;SDS011;58315;53.336;55.932;2023-05-10T14:58:31;28.25;;;14.05;;
70729;SDS011;58315;53.336;55.932;2023-05-10T15:00:57;31.02;;;15.88;;
70729;SDS011;58315;53.336;55.932;2023-05-10T15:03:23;26.48;;;14.27;;
70729;SDS011;58315;53.336;55.932;2023-05-10T15:05:49;26.30;;;13.98;;